sensor_id;sensor_type;location;lat;lon;timestamp;pressure;altitude;pressure_sealevel;temperature
45034;BMP280;30771;47.988;-4.186;2024-02-15T00:01:52;100388.38;;;14.31
45034;BMP280;30771;47.988;-4.186;2024-02-15T00:04:19;100381.94;;;14.27
45034;BMP280;30771;47.988;-4.186;2024-02-15T00:06:47;100390.66;;;14.27
45034;BMP280;30771;47.988;-4.186;2024-02-15T00:09:14;100380.53;;;14.24
45034;BMP280;30771;47.988;-4.186;2024-02-15T00:11:41;100382.81;;;14.21
45034;BMP280;30771;47.988;-4.186;2024-02-15T00:14:07;100381.41;;;14.18
45034;BMP280;30771;47.988;-4.186;2024-02-15T00:16:35;100363.19;;;14.10
45034;BMP280;30771;47.988;-4.186;2024-02-15T00:19:05;100370.94;;;14.12
45034;BMP280;30771;47.988;-4.186;2024-02-15T00:21:33;100369.56;;;14.09
45034;BMP280;30771;47.988;-4.186;2024-02-15T00:24:01;100365.50;;;14.07
45034;BMP280;30771;47.988;-4.186;2024-02-15T00:26:28;100370.22;;;14.05
45034;BMP280;30771;47.988;-4.186;2024-02-15T00:28:55;100358.69;;;13.99
45034;BMP280;30771;47.988;-4.186;2024-02-15T00:31:21;100365.00;;;13.98
45034;BMP280;30771;47.988;-4.186;2024-02-15T00:33:49;100355.91;;;13.94
45034;BMP280;30771;47.988;-4.186;2024-02-15T00:36:16;100352.69;;;13.92
45034;BMP280;30771;47.988;-4.186;2024-02-15T00:38:44;100351.31;;;13.90
45034;BMP280;30771;47.988;-4.186;2024-02-15T00:41:11;100346.22;;;13.88
45034;BMP280;30771;47.988;-4.186;2024-02-15T00:43:39;100346.13;;;13.83
45034;BMP280;30771;47.988;-4.186;2024-02-15T00:46:06;100342.66;;;13.83
45034;BMP280;30771;47.988;-4.186;2024-02-15T00:48:32;100329.28;;;13.78
45034;BMP280;30771;47.988;-4.186;2024-02-15T00:50:59;100334.78;;;13.76
45034;BMP280;30771;47.988;-4.186;2024-02-15T00:53:26;100320.03;;;13.69
45034;BMP280;30771;47.988;-4.186;2024-02-15T00:55:53;100329.59;;;13.70
45034;BMP280;30771;47.988;-4.186;2024-02-15T00:58:19;100325.13;;;13.70
45034;BMP280;30771;47.988;-4.186;2024-02-15T01:00:48;100334.06;;;13.69
45034;BMP280;30771;47.988;-4.186;2024-02-15T01:03:15;100326.34;;;13.68
45034;BMP280;30771;47.988;-4.186;2024-02-15T01:05:42;100325.31;;;13.69
45034;BMP280;30771;47.988;-4.186;2024-02-15T01:08:09;100322.88;;;13.67
45034;BMP280;30771;47.988;-4.186;2024-02-15T01:10:37;100325.81;;;13.66
45034;BMP280;30771;47.988;-4.186;2024-02-15T01:13:04;100324.16;;;13.65
45034;BMP280;30771;47.988;-4.186;2024-02-15T01:15:31;100318.28;;;13.63
45034;BMP280;30771;47.988;-4.186;2024-02-15T01:17:57;100302.50;;;13.56
45034;BMP280;30771;47.988;-4.186;2024-02-15T01:20:24;100299.19;;;13.61
45034;BMP280;30771;47.988;-4.186;2024-02-15T01:22:51;100303.09;;;13.58
45034;BMP280;30771;47.988;-4.186;2024-02-15T01:25:18;100304.09;;;13.57
45034;BMP280;30771;47.988;-4.186;2024-02-15T01:27:45;100301.47;;;13.57
45034;BMP280;30771;47.988;-4.186;2024-02-15T01:30:12;100297.22;;;13.56
45034;BMP280;30771;47.988;-4.186;2024-02-15T01:32:38;100300.06;;;13.55
45034;BMP280;30771;47.988;-4.186;2024-02-15T01:35:09;100296.63;;;13.54
45034;BMP280;30771;47.988;-4.186;2024-02-15T01:37:36;100287.28;;;13.52
45034;BMP280;30771;47.988;-4.186;2024-02-15T01:40:05;100276.94;;;13.50
45034;BMP280;30771;47.988;-4.186;2024-02-15T01:42:33;100289.59;;;13.48
45034;BMP280;30771;47.988;-4.186;2024-02-15T01:44:59;100291.66;;;13.46
45034;BMP280;30771;47.988;-4.186;2024-02-15T01:47:27;100289.22;;;13.45
45034;BMP280;30771;47.988;-4.186;2024-02-15T01:49:54;100284.75;;;13.45
45034;BMP280;30771;47.988;-4.186;2024-02-15T01:52:21;100288.44;;;13.44
45034;BMP280;30771;47.988;-4.186;2024-02-15T01:54:50;100272.75;;;13.43
45034;BMP280;30771;47.988;-4.186;2024-02-15T01:57:18;100267.03;;;13.46
45034;BMP280;30771;47.988;-4.186;2024-02-15T01:59:50;100264.41;;;13.46
45034;BMP280;30771;47.988;-4.186;2024-02-15T02:02:18;100261.53;;;13.47
45034;BMP280;30771;47.988;-4.186;2024-02-15T02:04:46;100267.38;;;13.49
45034;BMP280;30771;47.988;-4.186;2024-02-15T02:07:13;100260.50;;;13.48
45034;BMP280;30771;47.988;-4.186;2024-02-15T02:09:41;100259.44;;;13.49
45034;BMP280;30771;47.988;-4.186;2024-02-15T02:12:08;100263.28;;;13.53
45034;BMP280;30771;47.988;-4.186;2024-02-15T02:14:35;100254.53;;;13.53
45034;BMP280;30771;47.988;-4.186;2024-02-15T02:17:15;100256.16;;;13.54
45034;BMP280;30771;47.988;-4.186;2024-02-15T02:19:42;100251.44;;;13.56
45034;BMP280;30771;47.988;-4.186;2024-02-15T02:22:11;100258.31;;;13.57
45034;BMP280;30771;47.988;-4.186;2024-02-15T02:27:32;100250.78;;;13.60
45034;BMP280;30771;47.988;-4.186;2024-02-15T02:29:58;100251.00;;;13.59
45034;BMP280;30771;47.988;-4.186;2024-02-15T02:32:26;100244.44;;;13.61
45034;BMP280;30771;47.988;-4.186;2024-02-15T02:34:53;100242.03;;;13.60
45034;BMP280;30771;47.988;-4.186;2024-02-15T02:37:24;100242.84;;;13.60
45034;BMP280;30771;47.988;-4.186;2024-02-15T02:39:51;100231.44;;;13.60
45034;BMP280;30771;47.988;-4.186;2024-02-15T02:42:18;100237.78;;;13.59
45034;BMP280;30771;47.988;-4.186;2024-02-15T02:44:44;100232.81;;;13.62
45034;BMP280;30771;47.988;-4.186;2024-02-15T02:47:11;100231.22;;;13.61
45034;BMP280;30771;47.988;-4.186;2024-02-15T02:49:38;100229.97;;;13.64
45034;BMP280;30771;47.988;-4.186;2024-02-15T02:52:05;100228.09;;;13.64
45034;BMP280;30771;47.988;-4.186;2024-02-15T02:54:32;100219.69;;;13.67
45034;BMP280;30771;47.988;-4.186;2024-02-15T02:57:00;100223.97;;;13.68
45034;BMP280;30771;47.988;-4.186;2024-02-15T02:59:27;100219.47;;;13.69
45034;BMP280;30771;47.988;-4.186;2024-02-15T03:01:53;100227.78;;;13.72
45034;BMP280;30771;47.988;-4.186;2024-02-15T03:04:23;100219.59;;;13.74
45034;BMP280;30771;47.988;-4.186;2024-02-15T03:06:49;100216.75;;;13.75
45034;BMP280;30771;47.988;-4.186;2024-02-15T03:09:17;100209.00;;;13.74
45034;BMP280;30771;47.988;-4.186;2024-02-15T03:11:44;100211.81;;;13.79
45034;BMP280;30771;47.988;-4.186;2024-02-15T03:14:11;100206.03;;;13.82
45034;BMP280;30771;47.988;-4.186;2024-02-15T03:16:39;100200.75;;;13.82
45034;BMP280;30771;47.988;-4.186;2024-02-15T03:19:06;100200.16;;;13.80
45034;BMP280;30771;47.988;-4.186;2024-02-15T03:21:35;100195.25;;;13.83
45034;BMP280;30771;47.988;-4.186;2024-02-15T03:24:02;100196.03;;;13.84
45034;BMP280;30771;47.988;-4.186;2024-02-15T03:26:31;100196.28;;;13.82
45034;BMP280;30771;47.988;-4.186;2024-02-15T03:29:05;100195.03;;;13.85
45034;BMP280;30771;47.988;-4.186;2024-02-15T03:31:34;100195.03;;;13.85
45034;BMP280;30771;47.988;-4.186;2024-02-15T03:34:06;100195.34;;;13.88
45034;BMP280;30771;47.988;-4.186;2024-02-15T03:36:33;100196.16;;;13.89
45034;BMP280;30771;47.988;-4.186;2024-02-15T03:39:00;100187.63;;;13.87
45034;BMP280;30771;47.988;-4.186;2024-02-15T03:41:28;100178.44;;;13.89
45034;BMP280;30771;47.988;-4.186;2024-02-15T03:43:59;100185.38;;;13.90
45034;BMP280;30771;47.988;-4.186;2024-02-15T03:46:26;100176.03;;;13.88
45034;BMP280;30771;47.988;-4.186;2024-02-15T03:48:53;100175.56;;;13.91
45034;BMP280;30771;47.988;-4.186;2024-02-15T03:51:21;100176.38;;;13.91
45034;BMP280;30771;47.988;-4.186;2024-02-15T03:53:49;100181.69;;;13.91
45034;BMP280;30771;47.988;-4.186;2024-02-15T03:56:19;100176.16;;;13.93
45034;BMP280;30771;47.988;-4.186;2024-02-15T03:58:48;100178.78;;;13.93
45034;BMP280;30771;47.988;-4.186;2024-02-15T04:01:16;100180.84;;;13.91
45034;BMP280;30771;47.988;-4.186;2024-02-15T04:03:43;100176.72;;;13.95
45034;BMP280;30771;47.988;-4.186;2024-02-15T04:06:11;100174.91;;;13.95
45034;BMP280;30771;47.988;-4.186;2024-02-15T04:08:38;100165.22;;;13.89
45034;BMP280;30771;47.988;-4.186;2024-02-15T04:11:05;100166.56;;;13.92
45034;BMP280;30771;47.988;-4.186;2024-02-15T04:13:34;100168.69;;;13.90
45034;BMP280;30771;47.988;-4.186;2024-02-15T04:16:00;100162.31;;;13.91
45034;BMP280;30771;47.988;-4.186;2024-02-15T04:18:27;100158.91;;;13.90
45034;BMP280;30771;47.988;-4.186;2024-02-15T04:20:58;100147.50;;;13.90
45034;BMP280;30771;47.988;-4.186;2024-02-15T04:23:25;100154.03;;;13.87
45034;BMP280;30771;47.988;-4.186;2024-02-15T04:25:52;100164.88;;;13.86
45034;BMP280;30771;47.988;-4.186;2024-02-15T04:28:19;100164.53;;;13.82
45034;BMP280;30771;47.988;-4.186;2024-02-15T04:30:46;100154.75;;;13.83
45034;BMP280;30771;47.988;-4.186;2024-02-15T04:33:14;100162.88;;;13.81
45034;BMP280;30771;47.988;-4.186;2024-02-15T04:35:42;100165.22;;;13.78
45034;BMP280;30771;47.988;-4.186;2024-02-15T04:38:09;100166.03;;;13.78
45034;BMP280;30771;47.988;-4.186;2024-02-15T04:40:36;100164.41;;;13.77
45034;BMP280;30771;47.988;-4.186;2024-02-15T04:43:05;100157.47;;;13.76
45034;BMP280;30771;47.988;-4.186;2024-02-15T04:45:33;100151.59;;;13.74
45034;BMP280;30771;47.988;-4.186;2024-02-15T04:48:00;100145.50;;;13.74
45034;BMP280;30771;47.988;-4.186;2024-02-15T04:50:29;100149.78;;;13.75
45034;BMP280;30771;47.988;-4.186;2024-02-15T04:52:56;100151.59;;;13.74
45034;BMP280;30771;47.988;-4.186;2024-02-15T04:55:22;100141.03;;;13.74
45034;BMP280;30771;47.988;-4.186;2024-02-15T04:57:49;100139.19;;;13.75
45034;BMP280;30771;47.988;-4.186;2024-02-15T05:00:23;100136.78;;;13.73
45034;BMP280;30771;47.988;-4.186;2024-02-15T05:02:52;100136.78;;;13.73
45034;BMP280;30771;47.988;-4.186;2024-02-15T05:05:20;100134.91;;;13.74
45034;BMP280;30771;47.988;-4.186;2024-02-15T05:07:47;100130.13;;;13.71
45034;BMP280;30771;47.988;-4.186;2024-02-15T05:10:16;100124.00;;;13.70
45034;BMP280;30771;47.988;-4.186;2024-02-15T05:12:42;100118.91;;;13.69
45034;BMP280;30771;47.988;-4.186;2024-02-15T05:15:10;100111.22;;;13.67
45034;BMP280;30771;47.988;-4.186;2024-02-15T05:17:39;100118.38;;;13.67
45034;BMP280;30771;47.988;-4.186;2024-02-15T05:20:10;100114.69;;;13.68
45034;BMP280;30771;47.988;-4.186;2024-02-15T05:22:40;100110.09;;;13.63
45034;BMP280;30771;47.988;-4.186;2024-02-15T05:25:09;100108.84;;;13.66
45034;BMP280;30771;47.988;-4.186;2024-02-15T05:27:38;100109.03;;;13.64
45034;BMP280;30771;47.988;-4.186;2024-02-15T05:30:06;100104.56;;;13.65
45034;BMP280;30771;47.988;-4.186;2024-02-15T05:32:34;100114.13;;;13.66
45034;BMP280;30771;47.988;-4.186;2024-02-15T05:35:09;100107.44;;;13.63
45034;BMP280;30771;47.988;-4.186;2024-02-15T05:37:38;100110.91;;;13.64
45034;BMP280;30771;47.988;-4.186;2024-02-15T05:40:05;100115.59;;;13.62
45034;BMP280;30771;47.988;-4.186;2024-02-15T05:42:33;100115.38;;;13.63
45034;BMP280;30771;47.988;-4.186;2024-02-15T05:45:27;100110.56;;;13.60
45034;BMP280;30771;47.988;-4.186;2024-02-15T05:48:00;100106.03;;;13.61
45034;BMP280;30771;47.988;-4.186;2024-02-15T05:50:27;100103.97;;;13.63
45034;BMP280;30771;47.988;-4.186;2024-02-15T05:52:56;100107.44;;;13.63
45034;BMP280;30771;47.988;-4.186;2024-02-15T05:55:25;100102.16;;;13.63
45034;BMP280;30771;47.988;-4.186;2024-02-15T05:57:53;100103.16;;;13.62
45034;BMP280;30771;47.988;-4.186;2024-02-15T06:00:21;100104.44;;;13.60
45034;BMP280;30771;47.988;-4.186;2024-02-15T06:02:49;100100.75;;;13.61
45034;BMP280;30771;47.988;-4.186;2024-02-15T06:05:17;100099.41;;;13.58
45034;BMP280;30771;47.988;-4.186;2024-02-15T06:07:44;100101.56;;;13.61
45034;BMP280;30771;47.988;-4.186;2024-02-15T06:10:14;100089.41;;;13.60
45034;BMP280;30771;47.988;-4.186;2024-02-15T06:12:41;100086.75;;;13.60
45034;BMP280;30771;47.988;-4.186;2024-02-15T06:15:09;100079.03;;;13.59
45034;BMP280;30771;47.988;-4.186;2024-02-15T06:17:43;100074.78;;;13.58
45034;BMP280;30771;47.988;-4.186;2024-02-15T06:20:13;100068.66;;;13.57
45034;BMP280;30771;47.988;-4.186;2024-02-15T06:22:40;100080.28;;;13.56
45034;BMP280;30771;47.988;-4.186;2024-02-15T06:25:08;100078.44;;;13.57
45034;BMP280;30771;47.988;-4.186;2024-02-15T06:27:35;100072.34;;;13.56
45034;BMP280;30771;47.988;-4.186;2024-02-15T06:30:10;100064.06;;;13.53
45034;BMP280;30771;47.988;-4.186;2024-02-15T06:32:57;100056.56;;;13.50
45034;BMP280;30771;47.988;-4.186;2024-02-15T06:35:43;100067.75;;;13.52
45034;BMP280;30771;47.988;-4.186;2024-02-15T06:38:47;100073.50;;;13.49
45034;BMP280;30771;47.988;-4.186;2024-02-15T06:41:32;100080.88;;;13.47
45034;BMP280;30771;47.988;-4.186;2024-02-15T06:43:59;100081.66;;;13.47
45034;BMP280;30771;47.988;-4.186;2024-02-15T06:46:26;100085.78;;;13.43
45034;BMP280;30771;47.988;-4.186;2024-02-15T06:48:53;100092.47;;;13.46
45034;BMP280;30771;47.988;-4.186;2024-02-15T06:51:21;100105.47;;;13.47
45034;BMP280;30771;47.988;-4.186;2024-02-15T06:53:48;100094.53;;;13.44
45034;BMP280;30771;47.988;-4.186;2024-02-15T06:56:16;100105.47;;;13.47
45034;BMP280;30771;47.988;-4.186;2024-02-15T06:58:43;100112.63;;;13.47
45034;BMP280;30771;47.988;-4.186;2024-02-15T07:01:09;100114.78;;;13.50
45034;BMP280;30771;47.988;-4.186;2024-02-15T07:03:37;100121.56;;;13.46
45034;BMP280;30771;47.988;-4.186;2024-02-15T07:06:06;100121.56;;;13.46
45034;BMP280;30771;47.988;-4.186;2024-02-15T07:08:33;100121.56;;;13.46
45034;BMP280;30771;47.988;-4.186;2024-02-15T07:10:59;100109.59;;;13.43
45034;BMP280;30771;47.988;-4.186;2024-02-15T07:13:28;100099.28;;;13.42
45034;BMP280;30771;47.988;-4.186;2024-02-15T07:15:55;100110.59;;;13.42
45034;BMP280;30771;47.988;-4.186;2024-02-15T07:18:22;100102.94;;;13.41
45034;BMP280;30771;47.988;-4.186;2024-02-15T07:20:54;100086.25;;;13.40
45034;BMP280;30771;47.988;-4.186;2024-02-15T07:23:23;100102.13;;;13.40
45034;BMP280;30771;47.988;-4.186;2024-02-15T07:25:51;100093.38;;;13.40
45034;BMP280;30771;47.988;-4.186;2024-02-15T07:28:20;100082.78;;;13.40
45034;BMP280;30771;47.988;-4.186;2024-02-15T07:30:47;100088.09;;;13.40
45034;BMP280;30771;47.988;-4.186;2024-02-15T07:33:17;100075.91;;;13.39
45034;BMP280;30771;47.988;-4.186;2024-02-15T07:35:44;100080.16;;;13.40
45034;BMP280;30771;47.988;-4.186;2024-02-15T07:38:11;100092.59;;;13.39
45034;BMP280;30771;47.988;-4.186;2024-02-15T07:40:38;100072.44;;;13.38
45034;BMP280;30771;47.988;-4.186;2024-02-15T07:43:06;100076.50;;;13.41
45034;BMP280;30771;47.988;-4.186;2024-02-15T07:45:33;100061.63;;;13.40
45034;BMP280;30771;47.988;-4.186;2024-02-15T07:48:04;100078.88;;;13.42
45034;BMP280;30771;47.988;-4.186;2024-02-15T07:50:31;100072.56;;;13.43
45034;BMP280;30771;47.988;-4.186;2024-02-15T07:52:58;100062.25;;;13.42
45034;BMP280;30771;47.988;-4.186;2024-02-15T07:55:25;100063.38;;;13.46
45034;BMP280;30771;47.988;-4.186;2024-02-15T07:57:51;100063.97;;;13.48
45034;BMP280;30771;47.988;-4.186;2024-02-15T08:00:19;100071.63;;;13.49
45034;BMP280;30771;47.988;-4.186;2024-02-15T08:02:46;100070.06;;;13.48
45034;BMP280;30771;47.988;-4.186;2024-02-15T08:05:14;100077.31;;;13.53
45034;BMP280;30771;47.988;-4.186;2024-02-15T08:07:42;100076.28;;;13.54
45034;BMP280;30771;47.988;-4.186;2024-02-15T08:10:11;100075.00;;;13.56
45034;BMP280;30771;47.988;-4.186;2024-02-15T08:12:44;100080.63;;;13.60
45034;BMP280;30771;47.988;-4.186;2024-02-15T08:15:11;100074.88;;;13.63
45034;BMP280;30771;47.988;-4.186;2024-02-15T08:17:43;100071.81;;;13.66
45034;BMP280;30771;47.988;-4.186;2024-02-15T08:20:14;100068.09;;;13.67
45034;BMP280;30771;47.988;-4.186;2024-02-15T08:22:41;100062.34;;;13.70
45034;BMP280;30771;47.988;-4.186;2024-02-15T08:25:11;100065.91;;;13.75
45034;BMP280;30771;47.988;-4.186;2024-02-15T08:27:40;100074.44;;;13.77
45034;BMP280;30771;47.988;-4.186;2024-02-15T08:30:13;100063.25;;;13.75
45034;BMP280;30771;47.988;-4.186;2024-02-15T08:32:41;100067.19;;;13.84
45034;BMP280;30771;47.988;-4.186;2024-02-15T08:35:11;100064.88;;;13.88
45034;BMP280;30771;47.988;-4.186;2024-02-15T08:37:39;100070.50;;;13.91
45034;BMP280;30771;47.988;-4.186;2024-02-15T08:40:07;100058.06;;;13.92
45034;BMP280;30771;47.988;-4.186;2024-02-15T08:42:38;100050.78;;;13.99
45034;BMP280;30771;47.988;-4.186;2024-02-15T08:45:06;100058.06;;;14.03
45034;BMP280;30771;47.988;-4.186;2024-02-15T08:47:36;100059.41;;;14.06
45034;BMP280;30771;47.988;-4.186;2024-02-15T08:50:05;100045.97;;;14.07
45034;BMP280;30771;47.988;-4.186;2024-02-15T08:52:32;100032.22;;;14.10
45034;BMP280;30771;47.988;-4.186;2024-02-15T08:54:59;100018.53;;;14.13
45034;BMP280;30771;47.988;-4.186;2024-02-15T08:57:27;100036.97;;;14.20
45034;BMP280;30771;47.988;-4.186;2024-02-15T08:59:54;100027.97;;;14.21
45034;BMP280;30771;47.988;-4.186;2024-02-15T09:02:21;100027.25;;;14.25
45034;BMP280;30771;47.988;-4.186;2024-02-15T09:04:48;100011.16;;;14.27
45034;BMP280;30771;47.988;-4.186;2024-02-15T09:07:15;100009.84;;;14.29
45034;BMP280;30771;47.988;-4.186;2024-02-15T09:09:41;100010.44;;;14.31
45034;BMP280;30771;47.988;-4.186;2024-02-15T09:12:08;100008.09;;;14.35
45034;BMP280;30771;47.988;-4.186;2024-02-15T09:14:36;99994.94;;;14.40
45034;BMP280;30771;47.988;-4.186;2024-02-15T09:17:05;99986.97;;;14.40
45034;BMP280;30771;47.988;-4.186;2024-02-15T09:19:35;99986.84;;;14.47
45034;BMP280;30771;47.988;-4.186;2024-02-15T09:22:02;99980.28;;;14.49
45034;BMP280;30771;47.988;-4.186;2024-02-15T09:24:33;99963.88;;;14.52
45034;BMP280;30771;47.988;-4.186;2024-02-15T09:27:01;99960.78;;;14.55
45034;BMP280;30771;47.988;-4.186;2024-02-15T09:29:28;99961.66;;;14.61
45034;BMP280;30771;47.988;-4.186;2024-02-15T09:32:01;99948.75;;;14.64
45034;BMP280;30771;47.988;-4.186;2024-02-15T09:34:28;99949.06;;;14.68
45034;BMP280;30771;47.988;-4.186;2024-02-15T09:36:56;99949.16;;;14.73
45034;BMP280;30771;47.988;-4.186;2024-02-15T09:39:23;99961.66;;;14.77
45034;BMP280;30771;47.988;-4.186;2024-02-15T09:41:50;99970.03;;;14.86
45034;BMP280;30771;47.988;-4.186;2024-02-15T09:44:22;99972.44;;;14.87
45034;BMP280;30771;47.988;-4.186;2024-02-15T09:47:02;99986.81;;;14.91
45034;BMP280;30771;47.988;-4.186;2024-02-15T09:49:37;99982.88;;;14.94
45034;BMP280;30771;47.988;-4.186;2024-02-15T09:52:07;99980.53;;;14.97
45034;BMP280;30771;47.988;-4.186;2024-02-15T09:54:42;99966.56;;;15.02
45034;BMP280;30771;47.988;-4.186;2024-02-15T09:57:10;99967.47;;;15.07
45034;BMP280;30771;47.988;-4.186;2024-02-15T09:59:38;99965.41;;;15.14
45034;BMP280;30771;47.988;-4.186;2024-02-15T10:02:06;99964.13;;;15.17
45034;BMP280;30771;47.988;-4.186;2024-02-15T10:04:39;99964.13;;;15.17
45034;BMP280;30771;47.988;-4.186;2024-02-15T10:07:06;99960.75;;;15.21
45034;BMP280;30771;47.988;-4.186;2024-02-15T10:09:36;99952.59;;;15.28
45034;BMP280;30771;47.988;-4.186;2024-02-15T10:12:09;99954.06;;;15.35
45034;BMP280;30771;47.988;-4.186;2024-02-15T10:14:36;99954.69;;;15.42
45034;BMP280;30771;47.988;-4.186;2024-02-15T10:17:07;99948.94;;;15.50
45034;BMP280;30771;47.988;-4.186;2024-02-15T10:19:37;99939.00;;;15.63
45034;BMP280;30771;47.988;-4.186;2024-02-15T10:22:08;99934.34;;;15.75
45034;BMP280;30771;47.988;-4.186;2024-02-15T10:24:36;99940.59;;;15.85
45034;BMP280;30771;47.988;-4.186;2024-02-15T10:27:04;99942.25;;;15.91
45034;BMP280;30771;47.988;-4.186;2024-02-15T10:29:33;99923.16;;;15.94
45034;BMP280;30771;47.988;-4.186;2024-02-15T10:32:02;99930.41;;;15.99
45034;BMP280;30771;47.988;-4.186;2024-02-15T10:34:29;99925.88;;;15.99
45034;BMP280;30771;47.988;-4.186;2024-02-15T10:37:15;99927.75;;;15.99
45034;BMP280;30771;47.988;-4.186;2024-02-15T10:39:43;99931.44;;;15.98
45034;BMP280;30771;47.988;-4.186;2024-02-15T10:42:10;99929.34;;;16.00
45034;BMP280;30771;47.988;-4.186;2024-02-15T10:44:37;99926.13;;;15.98
45034;BMP280;30771;47.988;-4.186;2024-02-15T10:47:07;99929.09;;;16.01
45034;BMP280;30771;47.988;-4.186;2024-02-15T10:49:35;99932.81;;;16.00
45034;BMP280;30771;47.988;-4.186;2024-02-15T10:52:04;99922.44;;;15.99
45034;BMP280;30771;47.988;-4.186;2024-02-15T10:57:04;99939.91;;;15.95
45034;BMP280;30771;47.988;-4.186;2024-02-15T10:59:34;99950.22;;;15.91
45034;BMP280;30771;47.988;-4.186;2024-02-15T11:02:31;99938.25;;;15.89
45034;BMP280;30771;47.988;-4.186;2024-02-15T11:05:03;99926.03;;;15.88
45034;BMP280;30771;47.988;-4.186;2024-02-15T11:07:33;99906.06;;;15.85
45034;BMP280;30771;47.988;-4.186;2024-02-15T11:10:00;99893.06;;;15.84
45034;BMP280;30771;47.988;-4.186;2024-02-15T11:12:28;99902.13;;;15.88
45034;BMP280;30771;47.988;-4.186;2024-02-15T11:14:54;99888.34;;;15.91
45034;BMP280;30771;47.988;-4.186;2024-02-15T11:20:04;99875.66;;;15.98
45034;BMP280;30771;47.988;-4.186;2024-02-15T11:22:36;99874.13;;;16.07
45034;BMP280;30771;47.988;-4.186;2024-02-15T11:25:03;99861.75;;;16.17
45034;BMP280;30771;47.988;-4.186;2024-02-15T11:27:38;99859.44;;;16.26
45034;BMP280;30771;47.988;-4.186;2024-02-15T11:30:08;99861.41;;;16.35
45034;BMP280;30771;47.988;-4.186;2024-02-15T11:32:48;99858.28;;;16.48
45034;BMP280;30771;47.988;-4.186;2024-02-15T11:35:24;99854.91;;;16.58
45034;BMP280;30771;47.988;-4.186;2024-02-15T11:37:53;99853.91;;;16.69
45034;BMP280;30771;47.988;-4.186;2024-02-15T11:41:08;99848.91;;;16.77
45034;BMP280;30771;47.988;-4.186;2024-02-15T11:43:52;99850.03;;;16.86
45034;BMP280;30771;47.988;-4.186;2024-02-15T11:46:26;99852.41;;;16.88
45034;BMP280;30771;47.988;-4.186;2024-02-15T11:48:56;99854.56;;;16.91
45034;BMP280;30771;47.988;-4.186;2024-02-15T11:51:33;99866.78;;;16.92
45034;BMP280;30771;47.988;-4.186;2024-02-15T11:56:56;99870.28;;;16.98
45034;BMP280;30771;47.988;-4.186;2024-02-15T11:59:52;99865.78;;;17.03
45034;BMP280;30771;47.988;-4.186;2024-02-15T12:02:42;99861.25;;;17.04
45034;BMP280;30771;47.988;-4.186;2024-02-15T12:05:27;99864.47;;;17.06
45034;BMP280;30771;47.988;-4.186;2024-02-15T12:08:13;99858.66;;;17.09
45034;BMP280;30771;47.988;-4.186;2024-02-15T12:10:59;99864.25;;;17.17
45034;BMP280;30771;47.988;-4.186;2024-02-15T12:13:50;99856.56;;;17.21
45034;BMP280;30771;47.988;-4.186;2024-02-15T12:16:35;99862.66;;;17.26
45034;BMP280;30771;47.988;-4.186;2024-02-15T12:19:21;99845.13;;;17.30
45034;BMP280;30771;47.988;-4.186;2024-02-15T12:21:48;99855.78;;;17.35
45034;BMP280;30771;47.988;-4.186;2024-02-15T12:24:15;99857.41;;;17.41
45034;BMP280;30771;47.988;-4.186;2024-02-15T12:26:43;99860.59;;;17.38
45034;BMP280;30771;47.988;-4.186;2024-02-15T12:29:10;99863.00;;;17.45
45034;BMP280;30771;47.988;-4.186;2024-02-15T12:31:38;99862.75;;;17.46
45034;BMP280;30771;47.988;-4.186;2024-02-15T12:34:06;99865.91;;;17.48
45034;BMP280;30771;47.988;-4.186;2024-02-15T12:36:36;99876.88;;;17.52
45034;BMP280;30771;47.988;-4.186;2024-02-15T12:39:06;99876.34;;;17.55
45034;BMP280;30771;47.988;-4.186;2024-02-15T12:41:47;99879.81;;;17.55
45034;BMP280;30771;47.988;-4.186;2024-02-15T12:44:18;99889.66;;;17.55
45034;BMP280;30771;47.988;-4.186;2024-02-15T12:46:47;99898.44;;;17.55
45034;BMP280;30771;47.988;-4.186;2024-02-15T12:49:32;99917.06;;;17.50
45034;BMP280;30771;47.988;-4.186;2024-02-15T12:52:32;99921.06;;;17.48
45034;BMP280;30771;47.988;-4.186;2024-02-15T12:55:14;99913.06;;;17.43
45034;BMP280;30771;47.988;-4.186;2024-02-15T12:57:42;99919.13;;;17.43
45034;BMP280;30771;47.988;-4.186;2024-02-15T13:00:12;99922.34;;;17.40
45034;BMP280;30771;47.988;-4.186;2024-02-15T13:02:45;99918.38;;;17.38
45034;BMP280;30771;47.988;-4.186;2024-02-15T13:05:14;99916.47;;;17.38
45034;BMP280;30771;47.988;-4.186;2024-02-15T13:07:40;99923.41;;;17.39
45034;BMP280;30771;47.988;-4.186;2024-02-15T13:10:07;99915.41;;;17.39
45034;BMP280;30771;47.988;-4.186;2024-02-15T13:12:35;99925.81;;;17.36
45034;BMP280;30771;47.988;-4.186;2024-02-15T13:15:06;99935.06;;;17.28
45034;BMP280;30771;47.988;-4.186;2024-02-15T13:17:38;99926.53;;;17.26
45034;BMP280;30771;47.988;-4.186;2024-02-15T13:20:05;99941.44;;;17.22
45034;BMP280;30771;47.988;-4.186;2024-02-15T13:22:37;99945.97;;;17.27
45034;BMP280;30771;47.988;-4.186;2024-02-15T13:25:08;99940.09;;;17.25
45034;BMP280;30771;47.988;-4.186;2024-02-15T13:27:36;99939.84;;;17.26
45034;BMP280;30771;47.988;-4.186;2024-02-15T13:30:06;99926.53;;;17.26
45034;BMP280;30771;47.988;-4.186;2024-02-15T13:32:37;99937.72;;;17.28
45034;BMP280;30771;47.988;-4.186;2024-02-15T13:35:06;99930.84;;;17.32
45034;BMP280;30771;47.988;-4.186;2024-02-15T13:37:45;99927.38;;;17.32
45034;BMP280;30771;47.988;-4.186;2024-02-15T13:40:16;99936.66;;;17.29
45034;BMP280;30771;47.988;-4.186;2024-02-15T13:42:44;99928.97;;;17.28
45034;BMP280;30771;47.988;-4.186;2024-02-15T13:45:16;99928.97;;;17.28
45034;BMP280;30771;47.988;-4.186;2024-02-15T13:47:46;99932.13;;;17.25
45034;BMP280;30771;47.988;-4.186;2024-02-15T13:50:14;99922.28;;;17.25
45034;BMP280;30771;47.988;-4.186;2024-02-15T13:52:44;99918.00;;;17.24
45034;BMP280;30771;47.988;-4.186;2024-02-15T13:55:18;99914.81;;;17.22
45034;BMP280;30771;47.988;-4.186;2024-02-15T13:57:46;99922.50;;;17.24
45034;BMP280;30771;47.988;-4.186;2024-02-15T14:00:17;99923.63;;;17.23
45034;BMP280;30771;47.988;-4.186;2024-02-15T14:02:57;99921.44;;;17.20
45034;BMP280;30771;47.988;-4.186;2024-02-15T14:05:28;99935.28;;;17.17
45034;BMP280;30771;47.988;-4.186;2024-02-15T14:08:00;99928.91;;;17.18
45034;BMP280;30771;47.988;-4.186;2024-02-15T14:10:33;99920.63;;;17.19
45034;BMP280;30771;47.988;-4.186;2024-02-15T14:13:04;99902.81;;;17.20
45034;BMP280;30771;47.988;-4.186;2024-02-15T14:15:38;99904.41;;;17.16